createdAt,value
2024-01-20T00:01:16.705Z,66.28
2024-01-20T00:03:49.099Z,66.14
2024-01-20T00:06:16.796Z,66.04
2024-01-20T00:08:44.844Z,65.99
2024-01-20T00:11:12.515Z,66.10
2024-01-20T00:13:40.219Z,65.86
2024-01-20T00:16:07.701Z,66.20
2024-01-20T00:18:34.771Z,65.86
2024-01-20T00:21:02.128Z,65.98
2024-01-20T00:23:29.188Z,65.82
2024-01-20T00:25:56.631Z,65.67
2024-01-20T00:28:23.953Z,65.92
2024-01-20T00:30:51.279Z,66.00
2024-01-20T00:33:18.915Z,65.33
2024-01-20T00:35:46.466Z,65.24
2024-01-20T00:38:13.571Z,65.68
2024-01-20T00:40:41.749Z,65.73
2024-01-20T00:43:10.437Z,65.18
2024-01-20T00:45:37.816Z,65.23
2024-01-20T00:48:05.439Z,65.69
2024-01-20T00:50:32.756Z,65.21
2024-01-20T00:52:59.794Z,65.59
2024-01-20T00:55:27.365Z,65.65
2024-01-20T00:57:54.447Z,65.12
2024-01-20T01:00:21.770Z,65.80
2024-01-20T01:02:48.965Z,65.18
2024-01-20T01:05:16.451Z,65.40
2024-01-20T01:07:43.491Z,65.28
2024-01-20T01:10:11.064Z,64.84
2024-01-20T01:12:38.226Z,65.29
2024-01-20T01:15:06.609Z,65.30
2024-01-20T01:17:34.370Z,65.12
2024-01-20T01:20:02.476Z,65.26
2024-01-20T01:22:29.640Z,65.22
2024-01-20T01:24:56.876Z,64.81
2024-01-20T01:27:23.913Z,64.68
2024-01-20T01:29:51.348Z,64.67
2024-01-20T01:32:19.232Z,64.74
2024-01-20T01:34:46.720Z,64.43
2024-01-20T01:37:13.833Z,64.19
2024-01-20T01:39:42.637Z,64.50
2024-01-20T01:42:10.706Z,64.80
2024-01-20T01:44:37.974Z,64.49
2024-01-20T01:47:05.422Z,64.22
2024-01-20T01:49:33.493Z,64.27
2024-01-20T01:52:00.649Z,64.64
2024-01-20T01:54:28.370Z,64.81
2024-01-20T01:57:01.257Z,64.63
2024-01-20T01:59:30.387Z,64.34
2024-01-20T02:01:57.352Z,64.25
2024-01-20T02:04:25.076Z,64.49
2024-01-20T02:06:53.593Z,64.30
2024-01-20T02:09:22.004Z,64.45
2024-01-20T02:11:50.280Z,64.57
2024-01-20T02:14:19.769Z,64.40
2024-01-20T02:16:46.847Z,64.39
2024-01-20T02:19:14.708Z,64.37
2024-01-20T02:21:42.533Z,64.77
2024-01-20T02:24:11.277Z,65.08
2024-01-20T02:26:38.283Z,64.55
2024-01-20T02:29:05.584Z,64.82
2024-01-20T02:31:32.714Z,64.66
2024-01-20T02:34:01.487Z,64.58
2024-01-20T02:36:28.608Z,64.82
2024-01-20T02:38:56.119Z,64.83
2024-01-20T02:41:23.160Z,64.74
2024-01-20T02:43:50.632Z,64.85
2024-01-20T02:46:17.672Z,64.99
2024-01-20T02:48:45.117Z,64.83
2024-01-20T02:51:13.281Z,64.82
2024-01-20T02:53:40.588Z,64.88
2024-01-20T02:56:08.238Z,65.20
2024-01-20T02:58:35.475Z,65.03
2024-01-20T03:01:03.532Z,65.01
2024-01-20T03:03:31.280Z,65.02
2024-01-20T03:05:58.406Z,65.08
2024-01-20T03:08:25.956Z,65.27
2024-01-20T03:10:52.975Z,65.37
2024-01-20T03:13:20.326Z,65.20
2024-01-20T03:15:47.288Z,65.47
2024-01-20T03:18:14.722Z,65.25
2024-01-20T03:20:41.780Z,65.04
2024-01-20T03:23:09.018Z,65.24
2024-01-20T03:25:36.173Z,65.15
2024-01-20T03:28:03.837Z,65.49
2024-01-20T03:30:30.991Z,65.44
2024-01-20T03:32:59.358Z,65.42
2024-01-20T03:35:26.462Z,65.38
2024-01-20T03:37:53.867Z,65.66
2024-01-20T03:40:20.743Z,65.69
2024-01-20T03:42:47.981Z,65.57
2024-01-20T03:45:15.190Z,65.70
2024-01-20T03:47:42.603Z,65.93
2024-01-20T03:50:11.215Z,66.08
2024-01-20T03:52:38.536Z,65.73
2024-01-20T03:55:07.397Z,66.18
2024-01-20T03:57:34.619Z,65.77
2024-01-20T04:00:01.779Z,65.92
2024-01-20T04:02:29.134Z,65.92
2024-01-20T04:04:56.173Z,66.15
2024-01-20T04:07:23.611Z,66.27
2024-01-20T04:09:50.565Z,66.05
2024-01-20T04:12:18.002Z,66.41
2024-01-20T04:14:44.976Z,66.17
2024-01-20T04:17:12.441Z,66.81
2024-01-20T04:19:39.780Z,66.95
2024-01-20T04:22:07.028Z,66.84
2024-01-20T04:24:34.058Z,67.54
2024-01-20T04:27:01.481Z,66.99
2024-01-20T04:29:28.470Z,67.42
2024-01-20T04:31:55.842Z,67.34
2024-01-20T04:34:22.798Z,67.17
2024-01-20T04:36:50.142Z,67.21
2024-01-20T04:39:17.190Z,66.89
2024-01-20T04:41:44.425Z,66.88
2024-01-20T04:44:23.439Z,67.19
2024-01-20T04:46:50.673Z,67.17
2024-01-20T04:49:17.773Z,66.90
2024-01-20T04:51:46.141Z,66.72
2024-01-20T04:54:13.198Z,66.83
2024-01-20T04:56:40.448Z,66.77
2024-01-20T04:59:07.466Z,67.02
2024-01-20T05:01:35.099Z,66.76
2024-01-20T05:04:02.299Z,66.70
2024-01-20T05:06:29.690Z,66.50
2024-01-20T05:08:56.690Z,66.73
2024-01-20T05:11:23.976Z,65.95
2024-01-20T05:13:50.902Z,66.79
2024-01-20T05:16:19.271Z,66.63
2024-01-20T05:18:46.796Z,66.96
2024-01-20T05:21:15.252Z,66.72
2024-01-20T05:23:42.335Z,66.59
2024-01-20T05:26:09.587Z,66.22
2024-01-20T05:28:36.535Z,65.94
2024-01-20T05:31:03.842Z,66.60
2024-01-20T05:33:31.014Z,66.22
2024-01-20T05:36:00.512Z,66.32
2024-01-20T05:38:27.496Z,66.27
2024-01-20T05:40:54.843Z,66.11
2024-01-20T05:43:21.818Z,66.36
2024-01-20T05:45:49.014Z,66.21
2024-01-20T05:48:16.256Z,66.43
2024-01-20T05:50:43.653Z,66.34
2024-01-20T05:53:10.684Z,66.17
2024-01-20T05:55:38.008Z,66.28
2024-01-20T05:58:04.932Z,66.38
2024-01-20T06:00:32.739Z,66.11
2024-01-20T06:02:59.853Z,66.75
2024-01-20T06:05:27.225Z,66.44
2024-01-20T06:07:54.324Z,66.38
2024-01-20T06:10:21.751Z,66.83
2024-01-20T06:12:48.681Z,66.62
2024-01-20T06:15:16.488Z,66.18
2024-01-20T06:17:43.496Z,66.65
2024-01-20T06:20:11.829Z,66.56
2024-01-20T06:22:40.439Z,66.34
2024-01-20T06:25:08.394Z,66.33
2024-01-20T06:27:35.519Z,66.70
2024-01-20T06:30:04.795Z,66.69
2024-01-20T06:32:31.890Z,66.58
2024-01-20T06:34:59.384Z,66.39
2024-01-20T06:37:26.393Z,67.02
2024-01-20T06:39:54.291Z,67.08
2024-01-20T06:42:21.289Z,66.66
2024-01-20T06:44:48.988Z,66.57
2024-01-20T06:47:16.112Z,66.36
2024-01-20T06:49:43.603Z,66.46
2024-01-20T06:52:10.969Z,66.20
2024-01-20T06:54:40.276Z,66.39
2024-01-20T06:57:07.330Z,66.41
2024-01-20T06:59:34.606Z,65.92
2024-01-20T07:02:02.050Z,66.12
2024-01-20T07:04:30.608Z,66.14
2024-01-20T07:06:57.740Z,66.41
2024-01-20T07:09:26.617Z,66.11
2024-01-20T07:11:56.605Z,66.37
2024-01-20T07:14:25.078Z,66.42
2024-01-20T07:16:52.287Z,66.37
2024-01-20T07:19:25.153Z,66.30
2024-01-20T07:22:36.647Z,66.28
2024-01-20T07:25:05.644Z,66.22
2024-01-20T07:27:32.618Z,66.30
2024-01-20T07:30:00.052Z,66.06
2024-01-20T07:32:27.054Z,66.43
2024-01-20T07:34:54.545Z,66.01
2024-01-20T07:37:41.986Z,66.06
2024-01-20T07:40:10.981Z,66.38
2024-01-20T07:42:38.176Z,66.00
2024-01-20T07:45:06.246Z,65.72
2024-01-20T07:47:33.360Z,66.04
2024-01-20T07:50:00.603Z,66.30
2024-01-20T07:52:27.635Z,65.97
2024-01-20T07:54:54.985Z,66.53
2024-01-20T07:57:22.076Z,66.49
2024-01-20T07:59:49.605Z,66.22
2024-01-20T08:02:16.662Z,66.40
2024-01-20T08:04:59.889Z,66.23
2024-01-20T08:07:30.249Z,66.34
2024-01-20T08:09:57.644Z,66.57
2024-01-20T08:12:24.795Z,66.42
2024-01-20T08:15:21.625Z,66.72
2024-01-20T08:17:48.568Z,66.25
2024-01-20T08:20:15.855Z,66.09
2024-01-20T08:22:43.015Z,66.09
2024-01-20T08:25:10.987Z,65.91
2024-01-20T08:28:10.675Z,65.86
2024-01-20T08:30:38.043Z,65.93
2024-01-20T08:33:06.862Z,65.80
2024-01-20T08:35:38.011Z,65.51
2024-01-20T08:38:04.978Z,65.30
2024-01-20T08:40:32.302Z,65.71
2024-01-20T08:42:59.352Z,65.22
2024-01-20T08:45:26.933Z,65.18
2024-01-20T08:47:56.256Z,65.10
2024-01-20T08:50:23.455Z,64.98
2024-01-20T08:52:50.446Z,64.46
2024-01-20T08:55:28.912Z,64.74
2024-01-20T08:57:58.109Z,64.26
2024-01-20T09:00:43.952Z,64.05
2024-01-20T09:03:14.429Z,64.18
2024-01-20T09:05:41.756Z,64.15
2024-01-20T09:08:10.688Z,63.81
2024-01-20T09:10:38.836Z,63.58
2024-01-20T09:13:05.934Z,63.00
2024-01-20T09:15:56.966Z,62.68
2024-01-20T09:18:25.113Z,63.03
2024-01-20T09:20:52.613Z,62.93
2024-01-20T09:23:19.636Z,62.62
2024-01-20T09:25:46.925Z,62.17
2024-01-20T09:28:15.470Z,62.02
2024-01-20T09:30:42.950Z,62.34
2024-01-20T09:33:10.515Z,61.74
2024-01-20T09:35:38.786Z,62.07
2024-01-20T09:38:06.341Z,61.68
2024-01-20T09:40:36.225Z,61.63
2024-01-20T09:43:05.222Z,61.53
2024-01-20T09:45:39.501Z,61.57
2024-01-20T09:48:08.407Z,61.83
2024-01-20T09:50:36.100Z,61.57
2024-01-20T09:53:16.188Z,60.89
2024-01-20T09:55:46.456Z,60.75
2024-01-20T09:58:17.349Z,60.67
2024-01-20T10:00:45.589Z,60.81
2024-01-20T10:03:13.776Z,60.65
2024-01-20T10:05:41.511Z,60.37
2024-01-20T10:08:08.659Z,60.37
2024-01-20T10:10:36.316Z,60.10
2024-01-20T10:13:04.105Z,60.07
2024-01-20T10:15:34.993Z,60.41
2024-01-20T10:18:12.599Z,60.34
2024-01-20T10:20:40.978Z,60.03
2024-01-20T10:23:08.881Z,60.22
2024-01-20T10:25:36.709Z,59.67
2024-01-20T10:28:04.270Z,59.35
2024-01-20T10:30:31.939Z,58.77
2024-01-20T10:33:09.141Z,59.22
2024-01-20T10:35:40.067Z,58.51
2024-01-20T10:38:15.667Z,58.80
2024-01-20T10:40:46.673Z,59.40
2024-01-20T10:43:17.147Z,58.29
2024-01-20T10:46:06.709Z,58.24
2024-01-20T10:48:35.738Z,58.37
2024-01-20T10:51:14.123Z,57.89
2024-01-20T10:54:18.881Z,57.68
2024-01-20T10:56:46.307Z,57.48
2024-01-20T10:59:18.188Z,57.44
2024-01-20T11:01:46.903Z,57.24
2024-01-20T11:04:20.524Z,57.37
2024-01-20T11:06:48.714Z,56.74
2024-01-20T11:09:26.361Z,56.22
2024-01-20T11:12:08.278Z,56.44
2024-01-20T11:14:36.815Z,56.08
2024-01-20T11:17:16.507Z,56.36
2024-01-20T11:19:43.649Z,55.75
2024-01-20T11:22:35.497Z,55.94
2024-01-20T11:25:09.670Z,55.21
2024-01-20T11:27:55.537Z,55.91
2024-01-20T11:30:30.702Z,55.67
2024-01-20T11:32:59.261Z,55.02
2024-01-20T11:35:26.743Z,55.80
2024-01-20T11:38:00.180Z,54.20
2024-01-20T11:40:33.578Z,53.96
2024-01-20T11:43:09.137Z,54.00
2024-01-20T11:45:36.247Z,54.46
2024-01-20T11:48:04.338Z,54.33
2024-01-20T11:50:31.393Z,54.20
2024-01-20T11:52:58.788Z,54.05
2024-01-20T11:55:26.960Z,53.89
2024-01-20T11:57:57.278Z,53.92
2024-01-20T12:00:24.522Z,53.76
2024-01-20T12:02:53.598Z,54.07
2024-01-20T12:05:22.072Z,53.35
2024-01-20T12:10:53.642Z,53.45
2024-01-20T12:13:27.643Z,53.21
2024-01-20T12:15:55.412Z,53.38
2024-01-20T12:18:22.881Z,52.50
2024-01-20T12:20:49.962Z,51.00
2024-01-20T12:23:21.620Z,51.40
2024-01-20T12:25:54.164Z,51.24
2024-01-20T12:28:22.620Z,50.78
2024-01-20T12:30:50.496Z,51.08
2024-01-20T12:33:18.111Z,51.57
2024-01-20T12:35:51.760Z,51.30
2024-01-20T12:38:18.971Z,50.79
2024-01-20T12:40:46.185Z,50.40
2024-01-20T12:43:22.759Z,50.86
2024-01-20T12:45:49.823Z,50.69
2024-01-20T12:48:17.237Z,50.82
2024-01-20T12:50:44.923Z,50.90
2024-01-20T12:53:12.437Z,50.07
2024-01-20T12:55:43.220Z,49.89
2024-01-20T12:58:10.489Z,50.11
2024-01-20T13:00:43.853Z,50.46
2024-01-20T13:03:11.307Z,50.27
2024-01-20T13:05:38.742Z,50.70
2024-01-20T13:08:06.829Z,50.17
2024-01-20T13:10:33.972Z,49.96
2024-01-20T13:13:01.315Z,50.18
2024-01-20T13:15:28.450Z,50.46
2024-01-20T13:17:56.379Z,50.04
2024-01-20T13:20:25.329Z,49.55
2024-01-20T13:22:53.287Z,49.84
2024-01-20T13:25:22.130Z,49.65
2024-01-20T13:27:50.271Z,49.99
2024-01-20T13:30:20.020Z,49.58
2024-01-20T13:32:47.839Z,50.10
2024-01-20T13:35:15.150Z,50.25
2024-01-20T13:37:42.455Z,50.26
2024-01-20T13:40:11.178Z,50.26
2024-01-20T13:42:46.086Z,50.29
2024-01-20T13:45:22.933Z,50.33
2024-01-20T13:47:53.356Z,50.61
2024-01-20T13:50:49.286Z,50.45
2024-01-20T13:53:16.902Z,50.57
2024-01-20T13:56:00.796Z,50.01
2024-01-20T13:58:33.294Z,50.43
2024-01-20T14:01:04.959Z,50.19
2024-01-20T14:03:36.293Z,49.89
2024-01-20T14:06:04.131Z,49.78
2024-01-20T14:08:31.665Z,49.65
2024-01-20T14:10:58.775Z,49.72
2024-01-20T14:13:40.566Z,49.81
2024-01-20T14:16:28.198Z,50.10
2024-01-20T14:19:09.785Z,49.67
2024-01-20T14:21:37.152Z,49.94
2024-01-20T14:24:04.995Z,49.93
2024-01-20T14:26:32.161Z,50.01
2024-01-20T14:28:59.434Z,50.42
2024-01-20T14:31:26.490Z,50.32
2024-01-20T14:34:42.442Z,50.58
2024-01-20T14:37:14.929Z,51.12
2024-01-20T14:39:42.450Z,50.43
2024-01-20T14:42:23.102Z,50.64
2024-01-20T14:45:19.420Z,50.38
2024-01-20T14:47:47.998Z,50.56
2024-01-20T14:50:15.485Z,50.66
2024-01-20T14:53:04.855Z,51.01
2024-01-20T14:55:32.264Z,50.98
2024-01-20T14:58:02.416Z,50.87
2024-01-20T15:00:55.285Z,50.85
2024-01-20T15:03:22.409Z,50.92
2024-01-20T15:06:26.879Z,51.31
2024-01-20T15:08:57.552Z,50.59
2024-01-20T15:11:25.402Z,51.23
2024-01-20T15:13:52.406Z,50.65
2024-01-20T15:16:20.017Z,50.90
2024-01-20T15:18:47.245Z,50.37
2024-01-20T15:21:15.213Z,50.72
2024-01-20T15:24:05.832Z,51.16
2024-01-20T15:26:33.273Z,51.04
2024-01-20T15:29:00.355Z,50.90
2024-01-20T15:31:27.799Z,51.71
2024-01-20T15:33:57.686Z,51.11
2024-01-20T15:36:25.110Z,51.18
2024-01-20T15:39:15.936Z,51.91
2024-01-20T15:41:47.082Z,52.05
2024-01-20T15:44:14.540Z,51.85
2024-01-20T15:46:41.902Z,51.98
2024-01-20T15:49:09.150Z,52.11
2024-01-20T15:51:39.656Z,52.15
2024-01-20T15:54:06.828Z,51.90
2024-01-20T15:56:41.989Z,52.21
2024-01-20T15:59:08.885Z,52.16
2024-01-20T16:01:36.563Z,52.40
2024-01-20T16:04:04.329Z,52.39
2024-01-20T16:06:31.983Z,52.48
2024-01-20T16:08:58.978Z,51.78
2024-01-20T16:11:27.207Z,52.28
2024-01-20T16:13:54.290Z,52.41
2024-01-20T16:16:21.864Z,52.35
2024-01-20T16:18:49.504Z,51.89
2024-01-20T16:21:23.539Z,52.59
2024-01-20T16:23:54.472Z,52.70
2024-01-20T16:26:22.536Z,52.68
2024-01-20T16:28:50.296Z,52.90
2024-01-20T16:31:18.063Z,52.74
2024-01-20T16:33:46.575Z,52.71
2024-01-20T16:36:19.677Z,52.82
2024-01-20T16:38:53.609Z,52.70
2024-01-20T16:41:20.812Z,52.70
2024-01-20T16:43:47.746Z,53.10
2024-01-20T16:46:14.963Z,53.90
2024-01-20T16:48:42.949Z,53.33
2024-01-20T16:51:17.775Z,53.11
2024-01-20T16:53:49.503Z,53.36
2024-01-20T16:56:16.763Z,54.26
2024-01-20T16:58:56.647Z,53.70
2024-01-20T17:01:26.173Z,53.46
2024-01-20T17:04:01.117Z,53.58
2024-01-20T17:06:29.925Z,53.62
2024-01-20T17:09:02.011Z,53.72
2024-01-20T17:11:38.514Z,53.59
2024-01-20T17:14:05.514Z,53.72
2024-01-20T17:16:37.082Z,53.90
2024-01-20T17:19:06.740Z,54.16
2024-01-20T17:21:34.705Z,54.24
2024-01-20T17:24:01.801Z,53.73
2024-01-20T17:26:30.670Z,54.22
2024-01-20T17:28:58.722Z,54.02
2024-01-20T17:31:34.718Z,53.89
2024-01-20T17:34:04.515Z,54.51
2024-01-20T17:36:32.188Z,54.17
2024-01-20T17:39:01.435Z,54.80
2024-01-20T17:41:40.888Z,54.58
2024-01-20T17:44:07.893Z,54.92
2024-01-20T17:46:35.229Z,54.90
2024-01-20T17:49:02.275Z,54.97
2024-01-20T17:51:31.170Z,55.61
2024-01-20T17:53:58.209Z,55.54
2024-01-20T17:56:34.556Z,55.10
2024-01-20T17:59:26.979Z,56.05
2024-01-20T18:01:55.791Z,55.85
2024-01-20T18:04:23.696Z,55.65
2024-01-20T18:06:51.088Z,55.99
2024-01-20T18:09:18.603Z,55.76
2024-01-20T18:11:46.022Z,56.77
2024-01-20T18:14:13.220Z,56.30
2024-01-20T18:16:41.718Z,56.53
2024-01-20T18:19:19.688Z,56.45
2024-01-20T18:21:47.480Z,56.66
2024-01-20T18:24:14.937Z,56.30
2024-01-20T18:26:42.256Z,56.59
2024-01-20T18:29:09.290Z,56.65
2024-01-20T18:31:36.692Z,56.79
2024-01-20T18:34:04.259Z,56.75
2024-01-20T18:36:31.691Z,57.20
2024-01-20T18:39:02.386Z,56.68
2024-01-20T18:41:38.684Z,57.02
2024-01-20T18:44:05.735Z,57.11
2024-01-20T18:46:33.138Z,57.09
2024-01-20T18:49:00.732Z,57.70
2024-01-20T18:51:28.229Z,57.40
2024-01-20T18:53:55.526Z,57.12
2024-01-20T18:56:22.739Z,57.72
2024-01-20T18:58:49.956Z,57.63
2024-01-20T19:01:17.355Z,57.66
2024-01-20T19:03:44.589Z,57.62
2024-01-20T19:06:12.723Z,57.96
2024-01-20T19:08:39.957Z,57.81
2024-01-20T19:11:08.791Z,57.74
2024-01-20T19:13:35.896Z,57.88
2024-01-20T19:16:03.675Z,58.12
2024-01-20T19:18:31.123Z,58.14
2024-01-20T19:20:58.604Z,57.95
2024-01-20T19:23:25.940Z,57.66
2024-01-20T19:26:00.938Z,58.30
2024-01-20T19:28:46.468Z,58.05
2024-01-20T19:31:14.878Z,57.83
2024-01-20T19:33:46.694Z,57.63
2024-01-20T19:36:14.682Z,58.12
2024-01-20T19:38:50.453Z,58.22
2024-01-20T19:41:18.074Z,58.04
2024-01-20T19:43:45.829Z,58.49
2024-01-20T19:46:32.570Z,58.29
2024-01-20T19:49:18.883Z,58.62
2024-01-20T19:52:00.784Z,58.84
2024-01-20T19:54:28.120Z,59.02
2024-01-20T19:56:55.444Z,59.13
2024-01-20T19:59:22.491Z,58.71
2024-01-20T20:01:49.833Z,59.06
2024-01-20T20:04:37.868Z,59.04
2024-01-20T20:07:09.658Z,59.29
2024-01-20T20:10:04.717Z,58.72
2024-01-20T20:12:34.312Z,58.99
2024-01-20T20:15:14.973Z,59.63
2024-01-20T20:17:45.415Z,59.86
2024-01-20T20:20:13.368Z,59.47
2024-01-20T20:22:40.706Z,59.20
2024-01-20T20:25:27.247Z,59.48
2024-01-20T20:28:08.963Z,59.53
2024-01-20T20:30:36.068Z,59.27
2024-01-20T20:33:07.659Z,59.37
2024-01-20T20:35:36.566Z,59.47
2024-01-20T20:38:05.413Z,59.17
2024-01-20T20:41:17.121Z,58.88
2024-01-20T20:43:44.504Z,59.79
2024-01-20T20:46:11.765Z,58.93
2024-01-20T20:48:39.178Z,59.39
2024-01-20T20:51:06.169Z,59.29
2024-01-20T20:53:33.419Z,59.76
2024-01-20T20:56:00.864Z,59.95
2024-01-20T20:58:29.535Z,60.31
2024-01-20T21:00:56.882Z,60.11
2024-01-20T21:03:24.375Z,60.02
2024-01-20T21:06:31.051Z,60.81
2024-01-20T21:09:10.493Z,60.06
2024-01-20T21:11:40.306Z,59.93
2024-01-20T21:14:26.285Z,59.59
2024-01-20T21:16:58.563Z,59.54
2024-01-20T21:19:25.937Z,60.18
2024-01-20T21:21:53.148Z,59.67
2024-01-20T21:24:23.890Z,59.34
2024-01-20T21:26:50.905Z,59.83
2024-01-20T21:29:18.198Z,59.80
2024-01-20T21:31:45.521Z,59.97
2024-01-20T21:34:14.541Z,60.11
2024-01-20T21:36:41.732Z,60.25
2024-01-20T21:39:11.007Z,59.97
2024-01-20T21:41:38.249Z,60.20
2024-01-20T21:44:07.720Z,60.21
2024-01-20T21:46:35.864Z,60.57
2024-01-20T21:49:04.105Z,60.74
2024-01-20T21:51:31.341Z,60.70
2024-01-20T21:53:58.774Z,60.91
2024-01-20T21:56:25.921Z,60.63
2024-01-20T21:58:53.408Z,60.71
2024-01-20T22:01:21.858Z,60.57
2024-01-20T22:03:49.495Z,60.91
2024-01-20T22:06:16.562Z,60.95
2024-01-20T22:08:43.902Z,60.63
2024-01-20T22:11:10.981Z,61.36
2024-01-20T22:13:38.699Z,61.30
2024-01-20T22:16:06.466Z,61.48
2024-01-20T22:18:33.775Z,61.20
2024-01-20T22:21:01.703Z,61.33
2024-01-20T22:23:28.890Z,61.21
2024-01-20T22:25:55.935Z,61.59
2024-01-20T22:28:41.266Z,61.66
2024-01-20T22:31:24.332Z,61.47
2024-01-20T22:33:52.045Z,61.19
2024-01-20T22:36:19.120Z,61.58
2024-01-20T22:38:46.776Z,61.67
2024-01-20T22:41:17.547Z,61.37
2024-01-20T22:43:47.597Z,61.83
2024-01-20T22:46:18.421Z,61.43
2024-01-20T22:48:46.600Z,61.69
2024-01-20T22:51:24.112Z,61.81
2024-01-20T22:53:52.184Z,61.58
2024-01-20T22:56:19.232Z,62.35
2024-01-20T22:58:46.863Z,62.23
2024-01-20T23:01:17.246Z,61.83
2024-01-20T23:03:45.766Z,62.18
2024-01-20T23:06:12.982Z,62.35
2024-01-20T23:08:40.502Z,61.87
2024-01-20T23:11:09.263Z,62.22
2024-01-20T23:13:36.661Z,62.46
2024-01-20T23:16:23.588Z,62.59
2024-01-20T23:18:50.969Z,62.34
2024-01-20T23:21:18.077Z,61.98
2024-01-20T23:23:45.697Z,62.10
2024-01-20T23:26:16.312Z,62.20
2024-01-20T23:28:46.185Z,62.36
2024-01-20T23:31:13.180Z,62.79
2024-01-20T23:33:40.676Z,62.64
2024-01-20T23:36:08.371Z,62.29
2024-01-20T23:38:35.766Z,62.75
2024-01-20T23:41:02.755Z,62.64
2024-01-20T23:43:30.036Z,63.10
2024-01-20T23:45:56.969Z,63.13
2024-01-20T23:48:24.316Z,63.08
2024-01-20T23:50:51.406Z,63.13
2024-01-20T23:53:18.714Z,63.31
2024-01-20T23:55:45.654Z,63.49
2024-01-20T23:58:13.162Z,63.71
